PABT/BTT METAR and TAF weather

Enter ICAO airport designator
Station Type Date Time Source
PABT METAR 2019/05/26 22:53 UTC NOAA

PABT 262253Z 18004KT 10SM BKN090 OVC130 17/06 A2970 RMK AO2 SLP063 T01720061


Station Type Date Time Source
PABT Decoded METAR 2019/05/26 22:53 UTC NOAA

BETTLES AIRPORT, AK, United States (PABT) 66-54N 151-31W 196M
May 26, 2019 - 06:53 PM EDT / 2019.05.26 2253 UTC
Wind: from the S (180 degrees) at 5 MPH (4 KT):0
Visibility: 10 mile(s):0
Sky conditions: overcast
Temperature: 63.0 F (17.2 C)
Dew Point: 43.0 F (6.1 C)
Relative Humidity: 47%
Pressure (altimeter): 29.7 in. Hg (1005 hPa)
ob: PABT 262253Z 18004KT 10SM BKN090 OVC130 17/06 A2970 RMK AO2 SLP063 T01720061
cycle: 23

Station Type Date Time Source
PABT TAF 2019/05/26 18:51 UTC NOAA

TAF PABT 261748Z 2618/2718 36006KT P6SM BKN070
FM270600 02006KT 5SM -SHRA BR OVC025

Example: see airport list